sensor_id;sensor_type;location;lat;lon;timestamp;P1;durP1;ratioP1;P2;durP2;ratioP2
13475;SDS011;6810;63.824;20.288;2024-01-06T00:00:00;2.80;;;2.10;;
13475;SDS011;6810;63.824;20.288;2024-01-06T00:02:47;4.97;;;2.63;;
13475;SDS011;6810;63.824;20.288;2024-01-06T00:05:34;3.13;;;1.63;;
13475;SDS011;6810;63.824;20.288;2024-01-06T00:08:21;4.43;;;2.30;;
13475;SDS011;6810;63.824;20.288;2024-01-06T00:11:08;5.33;;;2.20;;
13475;SDS011;6810;63.824;20.288;2024-01-06T00:13:56;3.70;;;2.00;;
13475;SDS011;6810;63.824;20.288;2024-01-06T00:16:42;3.40;;;1.67;;
13475;SDS011;6810;63.824;20.288;2024-01-06T00:19:29;4.13;;;2.63;;
13475;SDS011;6810;63.824;20.288;2024-01-06T00:22:17;3.17;;;1.90;;
13475;SDS011;6810;63.824;20.288;2024-01-06T00:25:04;2.20;;;1.80;;
13475;SDS011;6810;63.824;20.288;2024-01-06T00:27:52;6.00;;;1.63;;
13475;SDS011;6810;63.824;20.288;2024-01-06T00:30:39;2.10;;;1.27;;
13475;SDS011;6810;63.824;20.288;2024-01-06T00:33:26;3.43;;;2.03;;
13475;SDS011;6810;63.824;20.288;2024-01-06T00:36:13;4.07;;;1.70;;
13475;SDS011;6810;63.824;20.288;2024-01-06T00:39:00;3.30;;;1.47;;
13475;SDS011;6810;63.824;20.288;2024-01-06T00:41:47;3.87;;;2.10;;
13475;SDS011;6810;63.824;20.288;2024-01-06T00:44:35;2.80;;;1.50;;
13475;SDS011;6810;63.824;20.288;2024-01-06T00:47:22;4.37;;;2.10;;
13475;SDS011;6810;63.824;20.288;2024-01-06T00:50:09;2.67;;;2.27;;
13475;SDS011;6810;63.824;20.288;2024-01-06T00:52:56;2.93;;;1.57;;
13475;SDS011;6810;63.824;20.288;2024-01-06T00:55:43;4.70;;;1.80;;
13475;SDS011;6810;63.824;20.288;2024-01-06T00:58:30;12.20;;;3.00;;
13475;SDS011;6810;63.824;20.288;2024-01-06T01:01:17;15.13;;;4.37;;
13475;SDS011;6810;63.824;20.288;2024-01-06T01:04:04;27.33;;;5.10;;
13475;SDS011;6810;63.824;20.288;2024-01-06T01:06:51;32.73;;;5.63;;
13475;SDS011;6810;63.824;20.288;2024-01-06T01:09:38;17.40;;;4.00;;
13475;SDS011;6810;63.824;20.288;2024-01-06T01:12:25;16.53;;;3.73;;
13475;SDS011;6810;63.824;20.288;2024-01-06T01:15:12;11.17;;;2.83;;
13475;SDS011;6810;63.824;20.288;2024-01-06T01:17:59;9.20;;;2.43;;
13475;SDS011;6810;63.824;20.288;2024-01-06T01:20:46;7.97;;;2.63;;
13475;SDS011;6810;63.824;20.288;2024-01-06T01:23:34;6.23;;;2.20;;
13475;SDS011;6810;63.824;20.288;2024-01-06T01:26:21;7.23;;;1.90;;
13475;SDS011;6810;63.824;20.288;2024-01-06T01:29:08;8.37;;;2.57;;
13475;SDS011;6810;63.824;20.288;2024-01-06T01:31:55;4.77;;;1.80;;
13475;SDS011;6810;63.824;20.288;2024-01-06T01:34:42;4.07;;;2.03;;
13475;SDS011;6810;63.824;20.288;2024-01-06T01:37:29;4.30;;;1.50;;
13475;SDS011;6810;63.824;20.288;2024-01-06T01:40:15;4.23;;;1.57;;
13475;SDS011;6810;63.824;20.288;2024-01-06T01:43:02;2.30;;;1.20;;
13475;SDS011;6810;63.824;20.288;2024-01-06T01:45:55;3.23;;;1.90;;
13475;SDS011;6810;63.824;20.288;2024-01-06T01:48:43;3.03;;;1.43;;
13475;SDS011;6810;63.824;20.288;2024-01-06T01:51:32;3.40;;;1.43;;
13475;SDS011;6810;63.824;20.288;2024-01-06T01:54:20;4.50;;;1.60;;
13475;SDS011;6810;63.824;20.288;2024-01-06T01:57:08;5.10;;;2.00;;
13475;SDS011;6810;63.824;20.288;2024-01-06T01:59:56;1.73;;;1.40;;
13475;SDS011;6810;63.824;20.288;2024-01-06T02:02:43;3.23;;;1.30;;
13475;SDS011;6810;63.824;20.288;2024-01-06T02:05:30;2.70;;;1.30;;
13475;SDS011;6810;63.824;20.288;2024-01-06T02:08:17;3.93;;;1.53;;
13475;SDS011;6810;63.824;20.288;2024-01-06T02:11:05;1.80;;;1.13;;
13475;SDS011;6810;63.824;20.288;2024-01-06T02:13:52;4.00;;;1.73;;
13475;SDS011;6810;63.824;20.288;2024-01-06T02:16:39;3.83;;;1.53;;
13475;SDS011;6810;63.824;20.288;2024-01-06T02:19:25;2.77;;;1.83;;
13475;SDS011;6810;63.824;20.288;2024-01-06T02:22:13;2.50;;;1.13;;
13475;SDS011;6810;63.824;20.288;2024-01-06T02:25:00;2.93;;;2.03;;
13475;SDS011;6810;63.824;20.288;2024-01-06T02:27:47;1.80;;;1.30;;
13475;SDS011;6810;63.824;20.288;2024-01-06T02:30:33;4.13;;;1.10;;
13475;SDS011;6810;63.824;20.288;2024-01-06T02:33:20;2.03;;;1.33;;
13475;SDS011;6810;63.824;20.288;2024-01-06T02:36:08;1.73;;;0.80;;
13475;SDS011;6810;63.824;20.288;2024-01-06T02:38:55;2.07;;;1.20;;
13475;SDS011;6810;63.824;20.288;2024-01-06T02:41:41;3.97;;;1.27;;
13475;SDS011;6810;63.824;20.288;2024-01-06T02:44:28;2.13;;;1.00;;
13475;SDS011;6810;63.824;20.288;2024-01-06T02:47:15;2.03;;;0.90;;
13475;SDS011;6810;63.824;20.288;2024-01-06T02:50:02;3.70;;;1.63;;
13475;SDS011;6810;63.824;20.288;2024-01-06T02:52:50;4.70;;;1.33;;
13475;SDS011;6810;63.824;20.288;2024-01-06T02:55:37;1.60;;;0.90;;
13475;SDS011;6810;63.824;20.288;2024-01-06T02:58:24;1.17;;;0.93;;
13475;SDS011;6810;63.824;20.288;2024-01-06T03:01:11;4.27;;;1.23;;
13475;SDS011;6810;63.824;20.288;2024-01-06T03:03:58;1.00;;;0.90;;
13475;SDS011;6810;63.824;20.288;2024-01-06T03:06:45;2.13;;;0.90;;
13475;SDS011;6810;63.824;20.288;2024-01-06T03:09:32;1.90;;;1.07;;
13475;SDS011;6810;63.824;20.288;2024-01-06T03:12:19;2.63;;;0.67;;
13475;SDS011;6810;63.824;20.288;2024-01-06T03:15:06;1.20;;;0.77;;
13475;SDS011;6810;63.824;20.288;2024-01-06T03:17:53;1.20;;;0.97;;
13475;SDS011;6810;63.824;20.288;2024-01-06T03:20:40;2.13;;;0.90;;
13475;SDS011;6810;63.824;20.288;2024-01-06T03:23:27;2.03;;;1.33;;
13475;SDS011;6810;63.824;20.288;2024-01-06T03:26:14;1.93;;;0.90;;
13475;SDS011;6810;63.824;20.288;2024-01-06T03:29:01;3.10;;;1.07;;
13475;SDS011;6810;63.824;20.288;2024-01-06T03:31:48;2.43;;;1.13;;
13475;SDS011;6810;63.824;20.288;2024-01-06T03:34:35;0.70;;;0.47;;
13475;SDS011;6810;63.824;20.288;2024-01-06T03:37:22;2.23;;;1.10;;
13475;SDS011;6810;63.824;20.288;2024-01-06T03:40:09;1.57;;;1.00;;
13475;SDS011;6810;63.824;20.288;2024-01-06T03:42:56;2.90;;;1.10;;
13475;SDS011;6810;63.824;20.288;2024-01-06T03:45:43;1.37;;;0.83;;
13475;SDS011;6810;63.824;20.288;2024-01-06T03:48:30;2.33;;;0.77;;
13475;SDS011;6810;63.824;20.288;2024-01-06T03:51:17;0.77;;;0.77;;
13475;SDS011;6810;63.824;20.288;2024-01-06T03:54:04;1.43;;;1.10;;
13475;SDS011;6810;63.824;20.288;2024-01-06T03:56:51;3.00;;;0.77;;
13475;SDS011;6810;63.824;20.288;2024-01-06T03:59:38;1.00;;;0.53;;
13475;SDS011;6810;63.824;20.288;2024-01-06T04:02:25;3.13;;;1.20;;
13475;SDS011;6810;63.824;20.288;2024-01-06T04:05:12;3.57;;;0.93;;
13475;SDS011;6810;63.824;20.288;2024-01-06T04:07:59;1.63;;;1.30;;
13475;SDS011;6810;63.824;20.288;2024-01-06T04:10:46;3.40;;;1.07;;
13475;SDS011;6810;63.824;20.288;2024-01-06T04:13:33;1.20;;;1.10;;
13475;SDS011;6810;63.824;20.288;2024-01-06T04:16:20;1.63;;;1.20;;
13475;SDS011;6810;63.824;20.288;2024-01-06T04:19:07;1.00;;;0.70;;
13475;SDS011;6810;63.824;20.288;2024-01-06T04:21:54;1.10;;;0.63;;
13475;SDS011;6810;63.824;20.288;2024-01-06T04:24:41;0.40;;;0.40;;
13475;SDS011;6810;63.824;20.288;2024-01-06T04:27:28;2.07;;;1.23;;
13475;SDS011;6810;63.824;20.288;2024-01-06T04:30:15;1.60;;;1.20;;
13475;SDS011;6810;63.824;20.288;2024-01-06T04:33:02;1.37;;;0.77;;
13475;SDS011;6810;63.824;20.288;2024-01-06T04:35:49;2.07;;;1.00;;
13475;SDS011;6810;63.824;20.288;2024-01-06T04:38:36;0.93;;;0.80;;
13475;SDS011;6810;63.824;20.288;2024-01-06T04:41:23;1.50;;;1.10;;
13475;SDS011;6810;63.824;20.288;2024-01-06T04:44:10;1.90;;;0.97;;
13475;SDS011;6810;63.824;20.288;2024-01-06T04:46:57;3.47;;;1.00;;
13475;SDS011;6810;63.824;20.288;2024-01-06T04:49:44;2.30;;;0.80;;
13475;SDS011;6810;63.824;20.288;2024-01-06T04:52:31;2.07;;;1.10;;
13475;SDS011;6810;63.824;20.288;2024-01-06T04:55:18;1.90;;;1.10;;
13475;SDS011;6810;63.824;20.288;2024-01-06T04:58:05;3.43;;;1.33;;
13475;SDS011;6810;63.824;20.288;2024-01-06T05:00:52;1.43;;;1.00;;
13475;SDS011;6810;63.824;20.288;2024-01-06T05:03:39;2.80;;;1.20;;
13475;SDS011;6810;63.824;20.288;2024-01-06T05:06:26;3.17;;;1.40;;
13475;SDS011;6810;63.824;20.288;2024-01-06T05:09:13;1.20;;;1.07;;
13475;SDS011;6810;63.824;20.288;2024-01-06T05:12:00;2.80;;;1.30;;
13475;SDS011;6810;63.824;20.288;2024-01-06T05:14:47;1.90;;;0.97;;
13475;SDS011;6810;63.824;20.288;2024-01-06T05:17:34;1.93;;;1.00;;
13475;SDS011;6810;63.824;20.288;2024-01-06T05:20:21;1.27;;;0.87;;
13475;SDS011;6810;63.824;20.288;2024-01-06T05:23:08;2.03;;;1.00;;
13475;SDS011;6810;63.824;20.288;2024-01-06T05:25:55;1.87;;;0.83;;
13475;SDS011;6810;63.824;20.288;2024-01-06T05:28:42;0.57;;;0.57;;
13475;SDS011;6810;63.824;20.288;2024-01-06T05:31:29;0.90;;;0.63;;
13475;SDS011;6810;63.824;20.288;2024-01-06T05:34:16;2.07;;;1.33;;
13475;SDS011;6810;63.824;20.288;2024-01-06T05:37:04;0.97;;;0.57;;
13475;SDS011;6810;63.824;20.288;2024-01-06T05:39:51;2.03;;;0.90;;
13475;SDS011;6810;63.824;20.288;2024-01-06T05:42:38;1.53;;;0.80;;
13475;SDS011;6810;63.824;20.288;2024-01-06T05:45:25;2.30;;;0.93;;
13475;SDS011;6810;63.824;20.288;2024-01-06T05:48:12;1.07;;;0.60;;
13475;SDS011;6810;63.824;20.288;2024-01-06T05:50:59;1.40;;;0.60;;
13475;SDS011;6810;63.824;20.288;2024-01-06T05:53:46;0.70;;;0.63;;
13475;SDS011;6810;63.824;20.288;2024-01-06T05:56:33;0.93;;;0.73;;
13475;SDS011;6810;63.824;20.288;2024-01-06T05:59:20;0.80;;;0.53;;
13475;SDS011;6810;63.824;20.288;2024-01-06T06:02:07;1.07;;;0.40;;
13475;SDS011;6810;63.824;20.288;2024-01-06T06:04:53;0.97;;;0.50;;
13475;SDS011;6810;63.824;20.288;2024-01-06T06:07:40;0.43;;;0.40;;
13475;SDS011;6810;63.824;20.288;2024-01-06T06:10:27;0.93;;;0.23;;
13475;SDS011;6810;63.824;20.288;2024-01-06T06:13:14;0.10;;;0.10;;
13475;SDS011;6810;63.824;20.288;2024-01-06T06:16:01;0.70;;;0.30;;
13475;SDS011;6810;63.824;20.288;2024-01-06T06:18:48;0.00;;;0.00;;
13475;SDS011;6810;63.824;20.288;2024-01-06T06:21:35;0.00;;;0.00;;
13475;SDS011;6810;63.824;20.288;2024-01-06T06:24:22;0.00;;;0.00;;
13475;SDS011;6810;63.824;20.288;2024-01-06T06:27:09;0.00;;;0.00;;
13475;SDS011;6810;63.824;20.288;2024-01-06T06:29:56;0.00;;;0.00;;
13475;SDS011;6810;63.824;20.288;2024-01-06T06:32:43;0.50;;;0.50;;
13475;SDS011;6810;63.824;20.288;2024-01-06T06:35:30;1.30;;;0.23;;
13475;SDS011;6810;63.824;20.288;2024-01-06T06:38:17;0.17;;;0.17;;
13475;SDS011;6810;63.824;20.288;2024-01-06T06:41:04;0.73;;;0.33;;
13475;SDS011;6810;63.824;20.288;2024-01-06T06:43:51;0.30;;;0.30;;
13475;SDS011;6810;63.824;20.288;2024-01-06T06:46:37;0.10;;;0.10;;
13475;SDS011;6810;63.824;20.288;2024-01-06T06:49:24;0.30;;;0.30;;
13475;SDS011;6810;63.824;20.288;2024-01-06T06:52:11;0.67;;;0.20;;
13475;SDS011;6810;63.824;20.288;2024-01-06T06:54:58;0.37;;;0.30;;
13475;SDS011;6810;63.824;20.288;2024-01-06T06:57:45;0.00;;;0.00;;
13475;SDS011;6810;63.824;20.288;2024-01-06T07:00:32;0.40;;;0.40;;
13475;SDS011;6810;63.824;20.288;2024-01-06T07:03:20;0.20;;;0.20;;
13475;SDS011;6810;63.824;20.288;2024-01-06T07:06:07;0.10;;;0.10;;
13475;SDS011;6810;63.824;20.288;2024-01-06T07:08:54;0.77;;;0.20;;
13475;SDS011;6810;63.824;20.288;2024-01-06T07:11:41;0.00;;;0.00;;
13475;SDS011;6810;63.824;20.288;2024-01-06T07:14:28;0.00;;;0.00;;
13475;SDS011;6810;63.824;20.288;2024-01-06T07:17:15;0.20;;;0.17;;
13475;SDS011;6810;63.824;20.288;2024-01-06T07:20:02;0.17;;;0.07;;
13475;SDS011;6810;63.824;20.288;2024-01-06T07:22:49;1.13;;;0.43;;
13475;SDS011;6810;63.824;20.288;2024-01-06T07:25:36;0.10;;;0.10;;
13475;SDS011;6810;63.824;20.288;2024-01-06T07:28:23;0.10;;;0.10;;
13475;SDS011;6810;63.824;20.288;2024-01-06T07:31:10;1.13;;;0.27;;
13475;SDS011;6810;63.824;20.288;2024-01-06T07:33:57;2.70;;;0.77;;
13475;SDS011;6810;63.824;20.288;2024-01-06T07:36:45;0.00;;;0.00;;
13475;SDS011;6810;63.824;20.288;2024-01-06T07:39:32;0.30;;;0.30;;
13475;SDS011;6810;63.824;20.288;2024-01-06T07:42:19;0.03;;;0.03;;
13475;SDS011;6810;63.824;20.288;2024-01-06T07:45:06;0.30;;;0.27;;
13475;SDS011;6810;63.824;20.288;2024-01-06T07:47:53;0.40;;;0.20;;
13475;SDS011;6810;63.824;20.288;2024-01-06T07:50:40;0.30;;;0.30;;
13475;SDS011;6810;63.824;20.288;2024-01-06T07:53:28;0.30;;;0.20;;
13475;SDS011;6810;63.824;20.288;2024-01-06T07:56:15;0.30;;;0.30;;
13475;SDS011;6810;63.824;20.288;2024-01-06T07:59:02;0.20;;;0.17;;
13475;SDS011;6810;63.824;20.288;2024-01-06T08:01:50;1.13;;;0.73;;
13475;SDS011;6810;63.824;20.288;2024-01-06T08:04:37;0.20;;;0.20;;
13475;SDS011;6810;63.824;20.288;2024-01-06T08:07:27;0.30;;;0.30;;
13475;SDS011;6810;63.824;20.288;2024-01-06T08:10:14;0.00;;;0.00;;
13475;SDS011;6810;63.824;20.288;2024-01-06T08:13:01;0.20;;;0.20;;
13475;SDS011;6810;63.824;20.288;2024-01-06T08:15:48;0.00;;;0.00;;
13475;SDS011;6810;63.824;20.288;2024-01-06T08:18:35;0.73;;;0.50;;
13475;SDS011;6810;63.824;20.288;2024-01-06T08:21:22;0.00;;;0.00;;
13475;SDS011;6810;63.824;20.288;2024-01-06T08:24:09;0.30;;;0.20;;
13475;SDS011;6810;63.824;20.288;2024-01-06T08:26:56;1.30;;;0.63;;
13475;SDS011;6810;63.824;20.288;2024-01-06T08:29:43;0.73;;;0.50;;
13475;SDS011;6810;63.824;20.288;2024-01-06T08:32:30;0.30;;;0.30;;
13475;SDS011;6810;63.824;20.288;2024-01-06T08:35:17;0.37;;;0.10;;
13475;SDS011;6810;63.824;20.288;2024-01-06T08:38:04;0.07;;;0.07;;
13475;SDS011;6810;63.824;20.288;2024-01-06T08:40:51;0.73;;;0.67;;
13475;SDS011;6810;63.824;20.288;2024-01-06T08:43:38;0.87;;;0.30;;
13475;SDS011;6810;63.824;20.288;2024-01-06T08:46:25;0.73;;;0.73;;
13475;SDS011;6810;63.824;20.288;2024-01-06T08:49:12;0.77;;;0.77;;
13475;SDS011;6810;63.824;20.288;2024-01-06T08:51:59;0.27;;;0.27;;
13475;SDS011;6810;63.824;20.288;2024-01-06T08:54:46;0.40;;;0.40;;
13475;SDS011;6810;63.824;20.288;2024-01-06T08:57:33;0.20;;;0.20;;
13475;SDS011;6810;63.824;20.288;2024-01-06T09:00:20;0.50;;;0.50;;
13475;SDS011;6810;63.824;20.288;2024-01-06T09:03:04;0.57;;;0.40;;
13475;SDS011;6810;63.824;20.288;2024-01-06T09:05:31;1.10;;;0.53;;
13475;SDS011;6810;63.824;20.288;2024-01-06T09:07:58;1.60;;;0.53;;
13475;SDS011;6810;63.824;20.288;2024-01-06T09:10:25;2.90;;;1.27;;
13475;SDS011;6810;63.824;20.288;2024-01-06T09:12:52;0.47;;;0.47;;
13475;SDS011;6810;63.824;20.288;2024-01-06T09:15:19;1.63;;;0.60;;
13475;SDS011;6810;63.824;20.288;2024-01-06T09:17:46;0.80;;;0.80;;
13475;SDS011;6810;63.824;20.288;2024-01-06T09:20:13;1.87;;;0.63;;
13475;SDS011;6810;63.824;20.288;2024-01-06T09:22:40;2.40;;;0.50;;
13475;SDS011;6810;63.824;20.288;2024-01-06T09:25:08;0.93;;;0.73;;
13475;SDS011;6810;63.824;20.288;2024-01-06T09:27:35;0.30;;;0.30;;
13475;SDS011;6810;63.824;20.288;2024-01-06T09:30:02;4.83;;;1.33;;
13475;SDS011;6810;63.824;20.288;2024-01-06T09:32:29;0.27;;;0.27;;
13475;SDS011;6810;63.824;20.288;2024-01-06T09:34:56;0.17;;;0.17;;
13475;SDS011;6810;63.824;20.288;2024-01-06T09:37:23;1.03;;;0.77;;
13475;SDS011;6810;63.824;20.288;2024-01-06T09:39:50;1.13;;;0.60;;
13475;SDS011;6810;63.824;20.288;2024-01-06T09:42:17;2.83;;;1.00;;
13475;SDS011;6810;63.824;20.288;2024-01-06T09:44:44;2.07;;;0.87;;
13475;SDS011;6810;63.824;20.288;2024-01-06T09:47:12;1.97;;;0.63;;
13475;SDS011;6810;63.824;20.288;2024-01-06T09:49:39;4.23;;;1.00;;
13475;SDS011;6810;63.824;20.288;2024-01-06T09:52:13;3.37;;;0.80;;
13475;SDS011;6810;63.824;20.288;2024-01-06T09:54:46;2.90;;;1.17;;
13475;SDS011;6810;63.824;20.288;2024-01-06T09:57:18;2.13;;;0.73;;
13475;SDS011;6810;63.824;20.288;2024-01-06T09:59:46;4.20;;;1.30;;
13475;SDS011;6810;63.824;20.288;2024-01-06T10:02:14;1.30;;;1.07;;
13475;SDS011;6810;63.824;20.288;2024-01-06T10:04:43;3.80;;;1.47;;
13475;SDS011;6810;63.824;20.288;2024-01-06T10:07:11;3.07;;;1.13;;
13475;SDS011;6810;63.824;20.288;2024-01-06T10:09:40;0.63;;;0.63;;
13475;SDS011;6810;63.824;20.288;2024-01-06T10:12:11;1.90;;;0.50;;
13475;SDS011;6810;63.824;20.288;2024-01-06T10:14:38;0.93;;;0.80;;
13475;SDS011;6810;63.824;20.288;2024-01-06T10:17:06;1.63;;;0.83;;
13475;SDS011;6810;63.824;20.288;2024-01-06T10:19:34;3.17;;;1.40;;
13475;SDS011;6810;63.824;20.288;2024-01-06T10:22:03;1.67;;;1.23;;
13475;SDS011;6810;63.824;20.288;2024-01-06T10:24:30;6.47;;;1.30;;
13475;SDS011;6810;63.824;20.288;2024-01-06T10:26:58;2.33;;;2.00;;
13475;SDS011;6810;63.824;20.288;2024-01-06T10:29:25;3.73;;;1.30;;
13475;SDS011;6810;63.824;20.288;2024-01-06T10:31:54;3.97;;;1.50;;
13475;SDS011;6810;63.824;20.288;2024-01-06T10:34:22;2.90;;;1.63;;
13475;SDS011;6810;63.824;20.288;2024-01-06T10:36:50;3.63;;;1.90;;
13475;SDS011;6810;63.824;20.288;2024-01-06T10:39:20;6.67;;;2.67;;
13475;SDS011;6810;63.824;20.288;2024-01-06T10:41:48;3.37;;;0.93;;
13475;SDS011;6810;63.824;20.288;2024-01-06T10:44:16;2.93;;;1.20;;
13475;SDS011;6810;63.824;20.288;2024-01-06T10:46:44;3.33;;;1.70;;
13475;SDS011;6810;63.824;20.288;2024-01-06T10:49:11;2.30;;;1.10;;
13475;SDS011;6810;63.824;20.288;2024-01-06T10:51:39;7.03;;;2.30;;
13475;SDS011;6810;63.824;20.288;2024-01-06T10:54:07;4.70;;;1.67;;
13475;SDS011;6810;63.824;20.288;2024-01-06T10:56:37;4.47;;;1.03;;
13475;SDS011;6810;63.824;20.288;2024-01-06T10:59:07;3.67;;;1.63;;
13475;SDS011;6810;63.824;20.288;2024-01-06T11:01:35;2.17;;;1.20;;
13475;SDS011;6810;63.824;20.288;2024-01-06T11:04:03;2.87;;;1.23;;
13475;SDS011;6810;63.824;20.288;2024-01-06T11:06:31;3.80;;;1.37;;
13475;SDS011;6810;63.824;20.288;2024-01-06T11:09:16;5.67;;;2.90;;
13475;SDS011;6810;63.824;20.288;2024-01-06T11:11:48;6.07;;;1.87;;
13475;SDS011;6810;63.824;20.288;2024-01-06T11:14:20;5.87;;;2.40;;
13475;SDS011;6810;63.824;20.288;2024-01-06T11:16:47;6.90;;;2.23;;
13475;SDS011;6810;63.824;20.288;2024-01-06T11:24:56;2.33;;;1.30;;
13475;SDS011;6810;63.824;20.288;2024-01-06T11:27:30;4.70;;;2.07;;
13475;SDS011;6810;63.824;20.288;2024-01-06T11:29:58;4.43;;;1.93;;
13475;SDS011;6810;63.824;20.288;2024-01-06T11:32:36;2.17;;;1.47;;
13475;SDS011;6810;63.824;20.288;2024-01-06T11:35:11;3.97;;;1.97;;
13475;SDS011;6810;63.824;20.288;2024-01-06T11:40:16;4.47;;;1.80;;
13475;SDS011;6810;63.824;20.288;2024-01-06T11:45:37;6.57;;;1.93;;
13475;SDS011;6810;63.824;20.288;2024-01-06T11:48:09;5.10;;;1.83;;
13475;SDS011;6810;63.824;20.288;2024-01-06T11:50:39;4.57;;;1.73;;
13475;SDS011;6810;63.824;20.288;2024-01-06T11:53:07;3.77;;;1.70;;
13475;SDS011;6810;63.824;20.288;2024-01-06T11:55:38;6.17;;;2.57;;
13475;SDS011;6810;63.824;20.288;2024-01-06T11:58:06;6.20;;;3.37;;
13475;SDS011;6810;63.824;20.288;2024-01-06T12:00:33;7.07;;;3.00;;
13475;SDS011;6810;63.824;20.288;2024-01-06T12:03:03;9.33;;;2.63;;
13475;SDS011;6810;63.824;20.288;2024-01-06T12:05:30;4.30;;;1.87;;
13475;SDS011;6810;63.824;20.288;2024-01-06T12:07:58;2.07;;;1.83;;
13475;SDS011;6810;63.824;20.288;2024-01-06T12:10:27;5.10;;;2.23;;
13475;SDS011;6810;63.824;20.288;2024-01-06T12:15:30;6.07;;;1.80;;
13475;SDS011;6810;63.824;20.288;2024-01-06T12:17:59;3.53;;;1.83;;
13475;SDS011;6810;63.824;20.288;2024-01-06T12:20:29;3.00;;;1.40;;
13475;SDS011;6810;63.824;20.288;2024-01-06T12:22:56;5.10;;;2.00;;
13475;SDS011;6810;63.824;20.288;2024-01-06T12:25:23;4.33;;;1.70;;
13475;SDS011;6810;63.824;20.288;2024-01-06T12:27:52;3.10;;;1.57;;
13475;SDS011;6810;63.824;20.288;2024-01-06T12:30:22;3.50;;;1.40;;
13475;SDS011;6810;63.824;20.288;2024-01-06T12:32:51;3.87;;;2.50;;
13475;SDS011;6810;63.824;20.288;2024-01-06T12:35:21;4.00;;;2.17;;
13475;SDS011;6810;63.824;20.288;2024-01-06T12:37:49;3.43;;;2.00;;
13475;SDS011;6810;63.824;20.288;2024-01-06T12:40:18;3.33;;;1.63;;
13475;SDS011;6810;63.824;20.288;2024-01-06T12:42:46;2.17;;;1.33;;
13475;SDS011;6810;63.824;20.288;2024-01-06T12:45:14;5.73;;;2.33;;
13475;SDS011;6810;63.824;20.288;2024-01-06T12:47:43;2.33;;;1.57;;
13475;SDS011;6810;63.824;20.288;2024-01-06T12:50:10;3.23;;;2.07;;
13475;SDS011;6810;63.824;20.288;2024-01-06T12:52:37;4.57;;;1.90;;
13475;SDS011;6810;63.824;20.288;2024-01-06T12:55:06;1.60;;;1.23;;
13475;SDS011;6810;63.824;20.288;2024-01-06T12:57:34;2.97;;;1.67;;
13475;SDS011;6810;63.824;20.288;2024-01-06T13:00:02;2.50;;;1.73;;
13475;SDS011;6810;63.824;20.288;2024-01-06T13:02:30;5.07;;;2.07;;
13475;SDS011;6810;63.824;20.288;2024-01-06T13:04:57;1.80;;;1.20;;
13475;SDS011;6810;63.824;20.288;2024-01-06T13:07:24;2.43;;;1.47;;
13475;SDS011;6810;63.824;20.288;2024-01-06T13:09:52;3.30;;;1.87;;
13475;SDS011;6810;63.824;20.288;2024-01-06T13:12:19;2.50;;;1.93;;
13475;SDS011;6810;63.824;20.288;2024-01-06T13:14:46;2.37;;;1.50;;
13475;SDS011;6810;63.824;20.288;2024-01-06T13:17:14;2.83;;;1.50;;
13475;SDS011;6810;63.824;20.288;2024-01-06T13:19:41;4.33;;;1.63;;
13475;SDS011;6810;63.824;20.288;2024-01-06T13:22:08;3.63;;;2.03;;
13475;SDS011;6810;63.824;20.288;2024-01-06T13:24:35;2.47;;;1.83;;
13475;SDS011;6810;63.824;20.288;2024-01-06T13:27:03;4.00;;;2.00;;
13475;SDS011;6810;63.824;20.288;2024-01-06T13:29:31;5.60;;;1.97;;
13475;SDS011;6810;63.824;20.288;2024-01-06T13:31:58;3.50;;;1.83;;
13475;SDS011;6810;63.824;20.288;2024-01-06T13:34:26;3.23;;;1.90;;
13475;SDS011;6810;63.824;20.288;2024-01-06T13:36:53;2.43;;;1.63;;
13475;SDS011;6810;63.824;20.288;2024-01-06T13:39:23;4.67;;;1.90;;
13475;SDS011;6810;63.824;20.288;2024-01-06T13:41:50;6.20;;;1.93;;
13475;SDS011;6810;63.824;20.288;2024-01-06T13:44:17;4.07;;;1.73;;
13475;SDS011;6810;63.824;20.288;2024-01-06T13:46:45;3.60;;;1.23;;
13475;SDS011;6810;63.824;20.288;2024-01-06T13:49:12;3.37;;;1.43;;
13475;SDS011;6810;63.824;20.288;2024-01-06T13:51:40;5.80;;;2.07;;
13475;SDS011;6810;63.824;20.288;2024-01-06T13:54:07;5.63;;;2.67;;
13475;SDS011;6810;63.824;20.288;2024-01-06T13:56:36;5.03;;;2.47;;
13475;SDS011;6810;63.824;20.288;2024-01-06T13:59:03;6.90;;;2.60;;
13475;SDS011;6810;63.824;20.288;2024-01-06T14:01:31;3.23;;;1.73;;
13475;SDS011;6810;63.824;20.288;2024-01-06T14:03:58;3.87;;;2.73;;
13475;SDS011;6810;63.824;20.288;2024-01-06T14:06:26;3.47;;;2.30;;
13475;SDS011;6810;63.824;20.288;2024-01-06T14:08:57;6.53;;;2.73;;
13475;SDS011;6810;63.824;20.288;2024-01-06T14:11:25;5.67;;;2.70;;
13475;SDS011;6810;63.824;20.288;2024-01-06T14:13:53;2.63;;;1.90;;
13475;SDS011;6810;63.824;20.288;2024-01-06T14:16:20;4.10;;;2.70;;
13475;SDS011;6810;63.824;20.288;2024-01-06T14:18:47;7.90;;;2.90;;
13475;SDS011;6810;63.824;20.288;2024-01-06T14:21:15;3.30;;;1.70;;
13475;SDS011;6810;63.824;20.288;2024-01-06T14:23:46;7.00;;;2.77;;
13475;SDS011;6810;63.824;20.288;2024-01-06T14:26:15;4.23;;;2.50;;
13475;SDS011;6810;63.824;20.288;2024-01-06T14:28:43;4.47;;;2.43;;
13475;SDS011;6810;63.824;20.288;2024-01-06T14:31:10;4.00;;;1.47;;
13475;SDS011;6810;63.824;20.288;2024-01-06T14:33:37;5.77;;;1.90;;
13475;SDS011;6810;63.824;20.288;2024-01-06T14:36:04;5.47;;;1.80;;
13475;SDS011;6810;63.824;20.288;2024-01-06T14:38:32;2.23;;;1.43;;
13475;SDS011;6810;63.824;20.288;2024-01-06T14:40:59;3.17;;;1.67;;
13475;SDS011;6810;63.824;20.288;2024-01-06T14:43:26;5.77;;;2.50;;
13475;SDS011;6810;63.824;20.288;2024-01-06T14:45:53;5.20;;;2.23;;
13475;SDS011;6810;63.824;20.288;2024-01-06T14:48:20;2.57;;;1.60;;
13475;SDS011;6810;63.824;20.288;2024-01-06T14:50:47;3.10;;;1.47;;
13475;SDS011;6810;63.824;20.288;2024-01-06T14:53:15;3.80;;;2.03;;
13475;SDS011;6810;63.824;20.288;2024-01-06T14:55:42;7.07;;;1.40;;
13475;SDS011;6810;63.824;20.288;2024-01-06T14:58:08;3.07;;;1.27;;
13475;SDS011;6810;63.824;20.288;2024-01-06T15:00:35;1.80;;;1.47;;
13475;SDS011;6810;63.824;20.288;2024-01-06T15:03:03;3.70;;;1.80;;
13475;SDS011;6810;63.824;20.288;2024-01-06T15:05:30;3.17;;;1.40;;
13475;SDS011;6810;63.824;20.288;2024-01-06T15:07:57;1.77;;;1.20;;
13475;SDS011;6810;63.824;20.288;2024-01-06T15:10:25;1.53;;;1.03;;
13475;SDS011;6810;63.824;20.288;2024-01-06T15:12:51;4.03;;;1.50;;
13475;SDS011;6810;63.824;20.288;2024-01-06T15:15:38;1.83;;;1.10;;
13475;SDS011;6810;63.824;20.288;2024-01-06T15:18:26;2.00;;;1.33;;
13475;SDS011;6810;63.824;20.288;2024-01-06T15:21:13;1.67;;;1.17;;
13475;SDS011;6810;63.824;20.288;2024-01-06T15:24:00;2.33;;;1.27;;
13475;SDS011;6810;63.824;20.288;2024-01-06T15:26:47;1.40;;;1.20;;
13475;SDS011;6810;63.824;20.288;2024-01-06T15:29:34;2.27;;;1.10;;
13475;SDS011;6810;63.824;20.288;2024-01-06T15:32:21;2.40;;;1.17;;
13475;SDS011;6810;63.824;20.288;2024-01-06T15:35:08;4.03;;;1.30;;
13475;SDS011;6810;63.824;20.288;2024-01-06T15:37:58;2.10;;;1.53;;
13475;SDS011;6810;63.824;20.288;2024-01-06T15:40:46;2.67;;;1.63;;
13475;SDS011;6810;63.824;20.288;2024-01-06T15:43:33;5.23;;;1.50;;
13475;SDS011;6810;63.824;20.288;2024-01-06T15:46:19;3.37;;;1.63;;
13475;SDS011;6810;63.824;20.288;2024-01-06T15:49:06;3.07;;;1.80;;
13475;SDS011;6810;63.824;20.288;2024-01-06T15:51:54;2.97;;;1.83;;
13475;SDS011;6810;63.824;20.288;2024-01-06T15:54:41;5.20;;;1.67;;
13475;SDS011;6810;63.824;20.288;2024-01-06T15:57:28;3.83;;;1.57;;
13475;SDS011;6810;63.824;20.288;2024-01-06T16:00:15;3.67;;;1.50;;
13475;SDS011;6810;63.824;20.288;2024-01-06T16:03:03;4.80;;;1.83;;
13475;SDS011;6810;63.824;20.288;2024-01-06T16:05:50;3.50;;;1.83;;
13475;SDS011;6810;63.824;20.288;2024-01-06T16:08:37;4.20;;;1.30;;
13475;SDS011;6810;63.824;20.288;2024-01-06T16:11:24;7.80;;;2.67;;
13475;SDS011;6810;63.824;20.288;2024-01-06T16:14:11;3.27;;;1.77;;